Joseph Murphy

Olheiro - Everton
10 Set 2028
Domingo
Processo

Personalidade

Adaptabilidade (1) Ambição (6) Controvérsia (11) Lealdade (19) Pressão (11) Profissionalismo (9) Espírito Esportivo (1) Temperamento (8)

Perfil

Estilo de Treinamento Democrático
Licença Nacional B
Determinação 8
Gestão de Pessoas 15
Motivação 9
Disciplina 13
Satisfação no Trabalho
100%
Fadiga
0%
Função Olheiro
Salário 56.7K p/s
Contrato 14.03.2030

Desempenho

Comportamento Bom
Eficácia do Treinamento
64%
Desenvolvimento do Jogador
50%
Prevenção de Lesões
25%
Implementação Tática
75%

Eventos Recentes

Participou de uma reunião de recrutamento agora
Participou de uma reunião de recrutamento agora
Recomendou um alvo de transferência agora
Recomendou um alvo de transferência agora
Recomendou um alvo de transferência agora
Recomendou um alvo de transferência agora
Avaliou um jogador agora
Avaliou um jogador agora

Monitorando agora

106
Jogador Clube Status Habilidade Confiança Observado Última observação Último voto
Jan Bürger Northampton Town Ativo 129 / 129 40% 6 09.09.2028 -
Celías Ingenthron Platense Ativo 113 / 126 40% 3 09.09.2028 -
Diego León Rotherham United Ativo 116 / 132 40% 2 09.09.2028 -
Christos Mouzakitis Hull City Ativo 147 / 149 40% 3 08.09.2028 -
Bade Aluko Leicester City Ativo 122 / 132 40% 1 08.09.2028 -
Harry Amass Manchester United Ativo 154 / 153 40% 1 07.09.2028 -
Ayyoub Bouaddi Stoke City Ativo 159 / 158 40% 1 07.09.2028 -
Alejandro Almaraz NK Celje Ativo 122 / 125 40% 1 05.09.2028 -
Chris Rigg West Ham United Ativo 139 / 146 40% 1 05.09.2028 -
Joe Bryan Bromley Perdido 109 / 117 69% 1 14.08.2028 -
Sindre Walle Egeli Udinese Perdido 138 / 141 40% 2 10.07.2028 -
Dwight McNeil Crystal Palace Ativo 157 / 144 40% 1 10.07.2028 -
Diego Mascardi Juventus Ativo 147 / 146 40% 1 01.06.2028 -
Christian Pulisic AC Milan Ativo 163 / 163 40% 1 31.05.2028 -
Tyrese Campbell Sheffield United Ativo 132 / 131 40% 1 31.05.2028 -
Andrey Ivlev Nizhniy Novgorod Ativo 114 / 120 40% 3 30.05.2028 -
Tobías Ramírez River Plate Ativo 140 / 136 40% 1 30.05.2028 -
Bernardo Lima Porto Ativo 115 / 117 40% 1 29.05.2028 -
Ronan Kpakio AC Milan Ativo 123 / 126 40% 1 28.05.2028 -
Josh Nichols Oldham Athletic Ativo 124 / 126 40% 1 27.05.2028 -
Augusto Bando Ascoli Ativo 113 / 115 40% 2 23.05.2028 -
Trey Nyoni Rotherham United Ativo 133 / 146 40% 2 23.05.2028 -
Riquelme Thompson-Jones Accrington Stanley Ativo 105 / 115 40% 2 23.05.2028 -
Tyler Fletcher Rotherham United Ativo 111 / 120 40% 3 22.05.2028 -
Ayden Heaven Portsmouth Ativo 145 / 148 40% 2 16.05.2028 -
Giovanni Leoni Lincoln City Ativo 138 / 144 40% 2 14.05.2028 -
Honest Ahanor Atalanta Ativo 140 / 140 40% 2 14.05.2028 -
Jorthy Mokio ADO Den Haag Ativo 139 / 139 40% 1 14.05.2028 -
Kiani Inge Groningen Ativo 109 / 122 40% 1 13.05.2028 -
Antonín Kinský Tottenham Ativo 143 / 155 40% 1 31.12.2027 -
Melker Ellborg Sunderland Ativo 135 / 133 40% 1 31.12.2027 -
Mohamed-Ali Cho Hull City Ativo 128 / 139 65% 1 01.06.2027 Aprovar
Radek Vítek Middlesbrough Ativo 135 / 137 40% 11 31.05.2027 -
Lukáš Horníček Burnley Ativo 146 / 153 40% 1 31.05.2027 -
Oscar Schwartau Norwich City Ativo 123 / 122 40% 4 29.05.2027 -
Bazoumana Touré Newcastle United Ativo 132 / 139 40% 2 29.05.2027 -
Caleb Yirenkyi Coventry City Ativo 146 / 143 40% 2 28.05.2027 -
Ryan Oné Sheffield United Ativo 116 / 124 40% 2 28.05.2027 -
Ethan Williams Peterborough United Ativo 112 / 119 40% 4 25.05.2027 -
Leo Castledine Middlesbrough Ativo 123 / 127 40% 1 25.05.2027 -
Sascha Britschgi AC Milan Ativo 125 / 132 40% 1 21.05.2027 -
Marvin Keller Chelsea Ativo 153 / 140 75% 10 20.05.2027 Fortemente a favor
James Trafford Leeds United Ativo 149 / 142 75% 9 18.05.2027 Fortemente a favor
Zion Suzuki Aston Villa Ativo 150 / 144 40% 8 18.05.2027 -
Mohamadou Kanté Crawley Town Ativo 118 / 120 40% 3 16.05.2027 -
Senne Lammens Manchester United Ativo 153 / 151 40% 7 15.05.2027 -
Nestory Irankunda Watford Ativo 113 / 131 40% 4 14.05.2027 -
Romelle Donovan Brentford Ativo 131 / 125 40% 2 12.05.2027 -
Alphadjo Cissé Lecce Ativo 120 / 128 40% 1 09.05.2027 -
Kirill Glebov CSKA Moscow Ativo 121 / 131 40% 3 04.05.2027 -
Tiago Freitas Benfica Ativo 106 / 114 40% 1 01.05.2027 -
Mateus Mané Burnley Ativo 131 / 138 40% 3 25.04.2027 -
Robin Roefs Sunderland Ativo 151 / 151 67% 12 24.04.2027 Aprovar
Mathys Tel Tottenham Ativo 144 / 149 40% 3 16.04.2027 -
Chemsdine Talbi Sunderland Ativo 143 / 149 40% 3 16.04.2027 -
Oliver Dovin Coventry City Ativo 122 / 133 40% 3 16.04.2027 -
Eduardo Fernandes Benfica Ativo 99 / 110 40% 1 09.04.2027 -
Kobbie Mainoo Manchester United Ativo 146 / 156 40% 1 03.04.2027 -
Othmane Maamma Watford Ativo 120 / 132 40% 1 26.03.2027 -
Malick Fofana Sunderland Ativo 149 / 151 40% 1 23.03.2027 -
Antoni Milambo Brentford Ativo 138 / 141 40% 2 21.03.2027 -
Cemran Dansin Orlando Pirates Ativo 107 / 109 40% 1 21.03.2027 -
Rocco Vata Watford Ativo 113 / 128 40% 1 18.03.2027 -
Josh Keeley Luton Town Ativo 117 / 121 40% 1 30.12.2026 -
Fran Vieites Walsall Ativo 110 / 120 40% 1 30.12.2026 -
Matheus Cunha Manchester United Ativo 153 / 156 40% 2 29.12.2026 -
Mats Wieffer Brighton Ativo 147 / 144 40% 5 28.12.2026 -
Xaver Schlager Nottingham Forest Ativo 161 / 149 40% 3 28.12.2026 -
João Pedro Chelsea Ativo 159 / 147 40% 2 25.12.2026 -
Emanuel Emegha Chelsea Ativo 130 / 141 40% 1 23.12.2026 -
Pedro Porro Tottenham Ativo 142 / 144 40% 2 22.12.2026 -
William Saliba Arsenal Ativo 168 / 180 40% 2 20.12.2026 -
Anthony Patterson Wrexham Ativo 129 / 123 40% 1 19.12.2026 -
Manu Koné AS Roma Ativo 163 / 160 40% 1 17.12.2026 -
Jérémy Doku Manchester City Ativo 157 / 160 40% 4 16.12.2026 Observar
Yeangel Montero Naxxar Lions Ativo 110 / 99 40% 1 14.12.2026 -
Talles Magno New York City Ativo 116 / 123 40% 3 12.12.2026 -
Antoine Semenyo Manchester City Ativo 161 / 155 40% 2 11.12.2026 -
Thiago Brentford Ativo 142 / 143 40% 1 10.12.2026 -
Eddie Nketiah Crystal Palace Ativo 148 / 137 40% 1 06.12.2026 -
Noussair Mazraoui Manchester United Ativo 155 / 147 40% 2 27.11.2026 -
Gabriel Martinelli Arsenal Ativo 161 / 157 40% 2 26.11.2026 Mais informações
Jesus Ferreira Seattle Sounders Ativo 121 / 133 40% 3 21.11.2026 -
Jurriën Timber Arsenal Ativo 153 / 158 40% 2 19.11.2026 -
Youri Tielemans Manchester United Ativo 158 / 157 40% 1 19.11.2026 -
Marc Guéhi Manchester City Ativo 174 / 172 40% 2 18.11.2026 -
Gabriel Arsenal Ativo 179 / 169 40% 1 17.11.2026 -
Moisés Caicedo Chelsea Ativo 163 / 165 40% 1 15.11.2026 -
Nicolas Jackson Aston Villa Ativo 156 / 146 40% 2 14.11.2026 -
Benjamin White Arsenal Ativo 163 / 152 40% 2 13.11.2026 -
Sandro Tonali Tottenham Ativo 175 / 167 40% 1 13.11.2026 -
Mads Hermansen West Ham United Ativo 127 / 131 40% 2 09.11.2026 -
Cheikh Sabaly Vancouver Whitecaps Ativo 136 / 118 40% 1 09.11.2026 -
Rúben Dias Manchester City Ativo 169 / 171 40% 1 07.11.2026 -
Levi Colwill Chelsea Ativo 155 / 162 40% 2 06.11.2026 -
Joseph Leclercq Tottenham Ativo 145 / 150 40% 2 31.10.2026 -
Roman Celentano FC Cincinnati Ativo 110 / 121 40% 2 31.10.2026 -
Óscar Mingueza Crystal Palace Ativo 144 / 154 40% 1 27.10.2026 -
Patrick Schulte Columbus Crew Ativo 109 / 128 40% 1 24.10.2026 -
Josh Sargent Toronto FC Ativo 132 / 129 40% 1 17.10.2026 -
Tino Livramento Newcastle United Ativo 155 / 158 40% 1 15.10.2026 -
Quinten Timber Crystal Palace Ativo 159 / 147 40% 1 15.10.2026 -
Enzo Fernández Manchester City Ativo 162 / 169 40% 1 14.10.2026 -
Grégoire Coudert Burnley Ativo 124 / 123 40% 1 10.10.2026 -
Agustín Anello Philadelphia Union Ativo 110 / 119 40% 1 09.10.2026 -
Dejan Joveljić Seattle Sounders Ativo 129 / 127 40% 1 09.10.2026 -